createdAt,value
2023-01-07T00:01:32.422Z,65.90
2023-01-07T00:04:00.828Z,65.90
2023-01-07T00:06:29.439Z,66.00
2023-01-07T00:08:57.960Z,66.30
2023-01-07T00:11:26.484Z,66.20
2023-01-07T00:13:54.779Z,66.30
2023-01-07T00:16:26.021Z,66.30
2023-01-07T00:18:54.359Z,66.20
2023-01-07T00:21:22.810Z,66.30
2023-01-07T00:23:50.629Z,66.30
2023-01-07T00:26:20.372Z,66.40
2023-01-07T00:28:49.793Z,66.40
2023-01-07T00:31:18.646Z,66.40
2023-01-07T00:33:51.888Z,66.50
2023-01-07T00:36:20.204Z,66.70
2023-01-07T00:38:48.461Z,66.60
2023-01-07T00:41:16.372Z,66.70
2023-01-07T00:43:44.172Z,66.70
2023-01-07T00:46:11.921Z,66.70
2023-01-07T00:48:39.696Z,66.70
2023-01-07T00:51:10.228Z,66.90
2023-01-07T00:53:37.933Z,66.80
2023-01-07T00:56:06.060Z,66.80
2023-01-07T00:58:33.945Z,66.90
2023-01-07T01:01:02.467Z,67.10
2023-01-07T01:03:30.930Z,66.90
2023-01-07T01:06:02.897Z,67.10
2023-01-07T01:08:32.254Z,67.70
2023-01-07T01:11:04.114Z,67.30
2023-01-07T01:13:32.027Z,67.10
2023-01-07T01:16:00.283Z,67.10
2023-01-07T01:18:28.049Z,67.50
2023-01-07T01:20:56.162Z,67.40
2023-01-07T01:23:23.864Z,67.50
2023-01-07T01:25:52.864Z,67.50
2023-01-07T01:28:20.571Z,67.40
2023-01-07T01:30:55.088Z,67.70
2023-01-07T01:33:23.287Z,67.70
2023-01-07T01:35:50.965Z,67.80
2023-01-07T01:38:19.062Z,68.00
2023-01-07T01:40:46.813Z,67.90
2023-01-07T01:43:30.592Z,67.90
2023-01-07T01:45:58.711Z,67.90
2023-01-07T01:48:27.105Z,68.00
2023-01-07T01:50:54.796Z,68.10
2023-01-07T01:53:24.383Z,68.20
2023-01-07T01:55:54.217Z,68.30
2023-01-07T01:58:24.556Z,68.30
2023-01-07T02:00:53.680Z,68.30
2023-01-07T02:03:21.792Z,68.40
2023-01-07T02:05:49.481Z,68.20
2023-01-07T02:08:22.139Z,68.70
2023-01-07T02:10:50.635Z,68.50
2023-01-07T02:13:26.733Z,68.50
2023-01-07T02:16:00.406Z,68.40
2023-01-07T02:18:41.986Z,68.60
2023-01-07T02:21:17.948Z,68.70
2023-01-07T02:24:22.994Z,68.60
2023-01-07T02:27:16.731Z,68.70
2023-01-07T02:30:21.132Z,68.80
2023-01-07T02:33:11.852Z,69.00
2023-01-07T02:36:02.459Z,69.10
2023-01-07T02:38:34.387Z,69.00
2023-01-07T02:41:07.162Z,69.20
2023-01-07T02:43:38.293Z,69.10
2023-01-07T02:46:10.649Z,69.40
2023-01-07T02:48:39.712Z,69.30
2023-01-07T02:51:07.388Z,69.40
2023-01-07T02:53:35.512Z,69.30
2023-01-07T02:56:11.267Z,69.30
2023-01-07T02:58:51.037Z,69.50
2023-01-07T03:01:29.460Z,69.30
2023-01-07T03:04:07.268Z,69.30
2023-01-07T03:06:42.362Z,69.40
2023-01-07T03:09:13.033Z,69.40
2023-01-07T03:11:43.181Z,69.30
2023-01-07T03:14:12.928Z,69.40
2023-01-07T03:16:42.658Z,69.30
2023-01-07T03:19:16.441Z,69.40
2023-01-07T03:21:44.216Z,69.30
2023-01-07T03:24:12.135Z,69.50
2023-01-07T03:26:41.012Z,69.40
2023-01-07T03:29:09.869Z,69.50
2023-01-07T03:31:37.839Z,69.40
2023-01-07T03:34:07.344Z,69.60
2023-01-07T03:36:39.005Z,69.70
2023-01-07T03:39:07.082Z,69.60
2023-01-07T03:42:04.133Z,69.50
2023-01-07T03:44:32.239Z,69.60
2023-01-07T03:47:00.025Z,69.70
2023-01-07T03:49:27.793Z,69.80
2023-01-07T03:51:57.543Z,69.70
2023-01-07T03:54:25.442Z,69.60
2023-01-07T03:56:53.540Z,69.70
2023-01-07T03:59:21.379Z,69.80
2023-01-07T04:01:49.331Z,69.70
2023-01-07T04:04:17.471Z,69.80
2023-01-07T04:06:45.434Z,69.90
2023-01-07T04:09:15.662Z,69.90
2023-01-07T04:11:43.478Z,69.80
2023-01-07T04:14:11.329Z,69.90
2023-01-07T04:16:39.042Z,69.80
2023-01-07T04:19:07.322Z,69.80
2023-01-07T04:21:35.190Z,69.90
2023-01-07T04:24:03.094Z,69.80
2023-01-07T04:26:33.887Z,69.90
2023-01-07T04:29:01.670Z,69.90
2023-01-07T04:31:29.373Z,69.90
2023-01-07T04:33:57.076Z,70.00
2023-01-07T04:36:24.756Z,69.90
2023-01-07T04:38:52.600Z,70.00
2023-01-07T04:41:20.285Z,70.00
2023-01-07T04:43:49.299Z,69.90
2023-01-07T04:46:17.486Z,69.90
2023-01-07T04:48:45.192Z,70.00
2023-01-07T04:51:12.911Z,70.10
2023-01-07T04:53:40.596Z,70.20
2023-01-07T04:56:09.339Z,70.00
2023-01-07T04:58:37.086Z,70.20
2023-01-07T05:01:07.364Z,69.80
2023-01-07T05:03:35.382Z,70.00
2023-01-07T05:06:03.768Z,70.10
2023-01-07T05:08:31.742Z,69.90
2023-01-07T05:10:59.908Z,70.00
2023-01-07T05:13:27.624Z,70.00
2023-01-07T05:15:55.316Z,69.80
2023-01-07T05:18:24.357Z,70.50
2023-01-07T05:20:52.041Z,70.00
2023-01-07T05:23:20.444Z,70.00
2023-01-07T05:25:48.136Z,70.20
2023-01-07T05:28:16.362Z,70.10
2023-01-07T05:30:44.076Z,70.10
2023-01-07T05:33:12.336Z,70.10
2023-01-07T05:35:41.349Z,70.00
2023-01-07T05:38:09.404Z,70.00
2023-01-07T05:40:37.092Z,70.10
2023-01-07T05:43:04.779Z,70.00
2023-01-07T05:45:32.977Z,70.10
2023-01-07T05:48:00.671Z,70.00
2023-01-07T05:50:28.885Z,70.10
2023-01-07T05:52:57.912Z,70.10
2023-01-07T05:55:26.023Z,70.10
2023-01-07T05:57:53.711Z,70.10
2023-01-07T06:00:21.931Z,70.00
2023-01-07T06:02:49.617Z,70.10
2023-01-07T06:05:17.661Z,70.70
2023-01-07T06:07:45.940Z,70.00
2023-01-07T06:10:15.255Z,70.00
2023-01-07T06:12:43.721Z,70.10
2023-01-07T06:15:12.356Z,70.20
2023-01-07T06:17:40.248Z,70.20
2023-01-07T06:20:09.242Z,70.10
2023-01-07T06:22:37.387Z,70.30
2023-01-07T06:25:05.461Z,70.10
2023-01-07T06:27:35.232Z,70.20
2023-01-07T06:30:04.276Z,70.10
2023-01-07T06:32:32.552Z,70.20
2023-01-07T06:35:00.477Z,70.10
2023-01-07T06:37:28.872Z,70.30
2023-01-07T06:39:58.265Z,70.10
2023-01-07T06:42:26.681Z,70.10
2023-01-07T06:44:55.784Z,70.00
2023-01-07T06:47:23.556Z,70.20
2023-01-07T06:49:51.628Z,70.10
2023-01-07T06:52:19.385Z,70.10
2023-01-07T06:54:48.568Z,70.20
2023-01-07T06:57:16.484Z,70.10
2023-01-07T06:59:44.615Z,70.10
2023-01-07T07:02:18.034Z,70.20
2023-01-07T07:04:45.785Z,70.10
2023-01-07T07:07:13.517Z,70.10
2023-01-07T07:09:41.577Z,70.00
2023-01-07T07:12:09.331Z,70.10
2023-01-07T07:14:37.096Z,70.00
2023-01-07T07:17:04.798Z,70.00
2023-01-07T07:19:33.833Z,70.10
2023-01-07T07:22:03.929Z,69.90
2023-01-07T07:24:32.332Z,70.00
2023-01-07T07:27:01.392Z,70.00
2023-01-07T07:29:29.061Z,69.90
2023-01-07T07:31:57.415Z,69.90
2023-01-07T07:34:25.259Z,69.90
2023-01-07T07:36:54.272Z,70.00
2023-01-07T07:39:21.951Z,69.90
2023-01-07T07:41:50.402Z,69.90
2023-01-07T07:44:18.238Z,70.00
2023-01-07T07:46:46.576Z,69.90
2023-01-07T07:49:14.670Z,69.90
2023-01-07T07:51:42.564Z,69.80
2023-01-07T07:54:11.817Z,69.90
2023-01-07T07:56:39.648Z,69.90
2023-01-07T07:59:07.374Z,69.90
2023-01-07T08:01:37.225Z,69.80
2023-01-07T08:04:05.526Z,70.00
2023-01-07T08:06:34.315Z,69.80
2023-01-07T08:09:02.586Z,69.80
2023-01-07T08:11:31.953Z,69.90
2023-01-07T08:14:00.138Z,69.90
2023-01-07T08:16:28.227Z,70.00
2023-01-07T08:18:56.644Z,69.90
2023-01-07T08:21:24.563Z,70.00
2023-01-07T08:23:52.910Z,69.90
2023-01-07T08:26:20.813Z,69.80
2023-01-07T08:28:50.129Z,69.60
2023-01-07T08:31:18.196Z,69.70
2023-01-07T08:33:46.123Z,69.80
2023-01-07T08:36:22.469Z,69.80
2023-01-07T08:38:52.128Z,69.70
2023-01-07T08:41:20.732Z,69.80
2023-01-07T08:43:50.377Z,69.80
2023-01-07T08:46:18.579Z,69.70
2023-01-07T08:48:46.270Z,69.70
2023-01-07T08:51:13.962Z,69.70
2023-01-07T08:53:41.679Z,69.70
2023-01-07T08:56:09.647Z,69.70
2023-01-07T08:58:38.814Z,69.40
2023-01-07T09:01:08.312Z,69.50
2023-01-07T09:03:36.155Z,69.40
2023-01-07T09:06:03.867Z,69.40
2023-01-07T09:08:31.691Z,69.30
2023-01-07T09:10:59.849Z,69.20
2023-01-07T09:13:27.560Z,69.10
2023-01-07T09:15:55.263Z,69.20
2023-01-07T09:18:24.274Z,69.20
2023-01-07T09:20:52.377Z,68.90
2023-01-07T09:23:20.051Z,68.80
2023-01-07T09:25:47.907Z,68.90
2023-01-07T09:28:16.133Z,68.80
2023-01-07T09:30:44.050Z,68.60
2023-01-07T09:33:12.494Z,68.40
2023-01-07T09:35:41.705Z,68.50
2023-01-07T09:38:09.795Z,68.30
2023-01-07T09:40:38.542Z,68.40
2023-01-07T09:43:09.292Z,68.40
2023-01-07T09:45:38.519Z,68.60
2023-01-07T09:48:07.864Z,68.40
2023-01-07T09:50:46.854Z,68.40
2023-01-07T09:53:16.151Z,68.20
2023-01-07T09:56:10.845Z,68.30
2023-01-07T09:58:31.963Z,68.20
2023-01-07T10:01:04.165Z,68.00
2023-01-07T10:03:42.086Z,68.10
2023-01-07T10:06:13.172Z,68.10
2023-01-07T10:08:46.625Z,68.00
2023-01-07T10:11:19.604Z,68.00
2023-01-07T10:14:01.047Z,68.10
2023-01-07T10:16:31.909Z,67.90
2023-01-07T10:19:01.709Z,68.10
2023-01-07T10:21:37.837Z,67.80
2023-01-07T10:24:09.552Z,67.50
2023-01-07T10:26:39.516Z,67.60
2023-01-07T10:29:09.131Z,67.50
2023-01-07T10:31:37.149Z,67.40
2023-01-07T10:34:07.737Z,68.10
2023-01-07T10:36:39.386Z,67.30
2023-01-07T10:39:15.071Z,67.40
2023-01-07T10:41:47.565Z,67.30
2023-01-07T10:44:45.427Z,67.30
2023-01-07T10:47:18.071Z,67.00
2023-01-07T10:49:54.767Z,67.00
2023-01-07T10:52:33.036Z,66.70
2023-01-07T10:55:28.987Z,66.60
2023-01-07T10:57:57.176Z,66.50
2023-01-07T11:00:25.218Z,66.50
2023-01-07T11:02:56.154Z,66.60
2023-01-07T11:05:25.011Z,66.20
2023-01-07T11:07:55.280Z,66.30
2023-01-07T11:10:24.231Z,66.40
2023-01-07T11:12:54.177Z,66.40
2023-01-07T11:15:23.272Z,66.30
2023-01-07T11:17:53.400Z,66.20
2023-01-07T11:20:42.519Z,66.20
2023-01-07T11:23:32.130Z,66.10
2023-01-07T11:26:24.423Z,66.00
2023-01-07T11:28:54.162Z,66.00
2023-01-07T11:31:22.090Z,66.20
2023-01-07T11:34:03.107Z,66.20
2023-01-07T11:36:41.674Z,66.10
2023-01-07T11:39:19.930Z,66.00
2023-01-07T11:41:55.485Z,66.80
2023-01-07T11:44:23.881Z,65.90
2023-01-07T11:46:51.642Z,65.80
2023-01-07T11:49:25.547Z,66.10
2023-01-07T11:51:53.489Z,66.10
2023-01-07T11:54:23.707Z,66.10
2023-01-07T11:56:54.174Z,66.00
2023-01-07T11:59:29.274Z,65.70
2023-01-07T12:01:59.435Z,65.70
2023-01-07T12:04:28.891Z,65.50
2023-01-07T12:06:57.754Z,65.20
2023-01-07T12:09:29.225Z,64.90
2023-01-07T12:11:58.598Z,64.90
2023-01-07T12:14:28.411Z,64.70
2023-01-07T12:16:56.436Z,64.70
2023-01-07T12:19:32.012Z,64.70
2023-01-07T12:22:06.919Z,64.70
2023-01-07T12:24:47.003Z,64.60
2023-01-07T12:27:24.213Z,64.50
2023-01-07T12:29:59.048Z,64.40
2023-01-07T12:32:34.040Z,64.50
2023-01-07T12:35:15.048Z,65.30
2023-01-07T12:37:44.747Z,64.40
2023-01-07T12:40:20.135Z,64.30
2023-01-07T12:42:51.983Z,64.10
2023-01-07T12:45:22.813Z,64.20
2023-01-07T12:47:52.447Z,64.00
2023-01-07T12:50:24.417Z,64.00
2023-01-07T12:52:53.680Z,63.70
2023-01-07T12:55:23.834Z,63.70
2023-01-07T12:58:00.082Z,63.70
2023-01-07T13:00:28.595Z,63.80
2023-01-07T13:02:59.793Z,63.70
2023-01-07T13:05:28.991Z,63.90
2023-01-07T13:07:58.612Z,63.70
2023-01-07T13:10:29.558Z,63.60
2023-01-07T13:12:58.989Z,63.60
2023-01-07T13:15:28.036Z,63.60
2023-01-07T13:17:56.474Z,63.60
2023-01-07T13:20:39.828Z,63.70
2023-01-07T13:23:09.267Z,63.70
2023-01-07T13:25:45.486Z,63.70
2023-01-07T13:28:29.759Z,63.50
2023-01-07T13:31:11.229Z,63.60
2023-01-07T13:33:43.074Z,63.50
2023-01-07T13:36:21.574Z,63.40
2023-01-07T13:39:00.314Z,63.30
2023-01-07T13:41:35.756Z,63.20
2023-01-07T13:44:54.419Z,62.90
2023-01-07T13:47:23.920Z,62.70
2023-01-07T13:49:56.288Z,62.40
2023-01-07T13:52:25.403Z,62.10
2023-01-07T13:54:57.494Z,61.70
2023-01-07T13:57:45.855Z,61.30
2023-01-07T14:00:45.508Z,61.10
2023-01-07T14:03:45.691Z,60.90
2023-01-07T14:06:44.858Z,60.90
2023-01-07T14:09:35.868Z,60.90
2023-01-07T14:12:34.850Z,60.60
2023-01-07T14:15:36.147Z,60.70
2023-01-07T14:18:57.900Z,60.40
2023-01-07T14:21:37.232Z,60.40
2023-01-07T14:24:30.719Z,60.20
2023-01-07T14:27:00.353Z,60.10
2023-01-07T14:29:46.652Z,60.20
2023-01-07T14:32:39.161Z,60.10
2023-01-07T14:35:08.391Z,60.10
2023-01-07T14:37:38.301Z,60.00
2023-01-07T14:40:42.534Z,59.90
2023-01-07T14:44:02.044Z,59.90
2023-01-07T14:46:49.169Z,59.90
2023-01-07T14:49:45.044Z,59.80
2023-01-07T14:52:19.401Z,59.90
2023-01-07T14:55:19.471Z,59.90
2023-01-07T14:57:53.015Z,59.70
2023-01-07T15:00:31.499Z,59.70
2023-01-07T15:03:10.725Z,59.70
2023-01-07T15:06:01.959Z,59.70
2023-01-07T15:09:00.278Z,59.70
2023-01-07T15:11:47.103Z,59.80
2023-01-07T15:14:38.827Z,59.90
2023-01-07T15:17:07.175Z,59.90
2023-01-07T15:19:38.062Z,59.90
2023-01-07T15:22:10.308Z,60.00
2023-01-07T15:24:40.333Z,60.10
2023-01-07T15:27:11.983Z,60.20
2023-01-07T15:29:43.873Z,60.20
2023-01-07T15:32:18.260Z,60.20
2023-01-07T15:34:45.966Z,60.30
2023-01-07T15:37:14.187Z,60.30
2023-01-07T15:39:45.604Z,60.40
2023-01-07T15:42:16.148Z,60.40
2023-01-07T15:44:43.903Z,60.60
2023-01-07T15:47:37.868Z,60.50
2023-01-07T15:50:23.544Z,60.50
2023-01-07T15:52:51.600Z,60.60
2023-01-07T15:55:27.519Z,60.60
2023-01-07T15:58:01.179Z,60.70
2023-01-07T16:00:29.584Z,60.80
2023-01-07T16:02:57.407Z,60.80
2023-01-07T16:05:26.733Z,60.80
2023-01-07T16:07:55.312Z,60.90
2023-01-07T16:10:24.575Z,60.80
2023-01-07T16:12:52.835Z,61.10
2023-01-07T16:15:27.397Z,61.00
2023-01-07T16:17:56.072Z,60.90
2023-01-07T16:20:27.622Z,61.00
2023-01-07T16:23:13.973Z,61.70
2023-01-07T16:25:44.076Z,61.10
2023-01-07T16:28:12.963Z,61.10
2023-01-07T16:30:41.964Z,61.10
2023-01-07T16:33:11.083Z,61.00
2023-01-07T16:35:38.761Z,61.00
2023-01-07T16:38:06.496Z,61.20
2023-01-07T16:40:36.061Z,61.20
2023-01-07T16:43:04.476Z,61.10
2023-01-07T16:45:33.231Z,61.20
2023-01-07T16:48:19.259Z,61.00
2023-01-07T16:50:47.432Z,61.10
2023-01-07T16:53:23.127Z,61.20
2023-01-07T16:55:51.600Z,60.90
2023-01-07T16:58:26.778Z,61.10
2023-01-07T17:00:55.299Z,61.20
2023-01-07T17:03:24.736Z,61.10
2023-01-07T17:05:59.147Z,60.90
2023-01-07T17:08:26.854Z,60.90
2023-01-07T17:10:59.018Z,61.10
2023-01-07T17:13:35.391Z,60.90
2023-01-07T17:16:31.866Z,60.90
2023-01-07T17:19:26.464Z,60.80
2023-01-07T17:21:54.314Z,60.90
2023-01-07T17:24:23.946Z,61.00
2023-01-07T17:26:51.800Z,61.10
2023-01-07T17:29:20.230Z,61.10
2023-01-07T17:31:48.280Z,61.00
2023-01-07T17:34:17.911Z,61.10
2023-01-07T17:36:47.230Z,60.90
2023-01-07T17:39:15.083Z,61.00
2023-01-07T17:42:00.667Z,60.80
2023-01-07T17:44:28.767Z,60.80
2023-01-07T17:46:56.453Z,60.80
2023-01-07T17:49:24.534Z,60.70
2023-01-07T17:51:54.924Z,60.60
2023-01-07T17:54:23.608Z,60.60
2023-01-07T17:56:52.073Z,60.60
2023-01-07T17:59:20.528Z,60.70
2023-01-07T18:01:48.485Z,60.50
2023-01-07T18:04:17.583Z,60.50
2023-01-07T18:06:45.985Z,60.40
2023-01-07T18:09:15.025Z,60.40
2023-01-07T18:12:01.623Z,60.40
2023-01-07T18:14:29.304Z,60.50
2023-01-07T18:16:57.446Z,60.40
2023-01-07T18:19:25.156Z,60.50
2023-01-07T18:21:52.875Z,60.50
2023-01-07T18:24:22.646Z,60.40
2023-01-07T18:26:50.354Z,60.20
2023-01-07T18:29:18.479Z,60.20
2023-01-07T18:31:46.434Z,60.00
2023-01-07T18:34:15.915Z,60.00
2023-01-07T18:36:43.840Z,60.10
2023-01-07T18:39:12.622Z,59.90
2023-01-07T18:41:42.041Z,59.80
2023-01-07T18:44:10.515Z,59.70
2023-01-07T18:46:38.400Z,59.80
2023-01-07T18:49:06.268Z,59.70
2023-01-07T18:51:34.218Z,59.70
2023-01-07T18:54:02.081Z,59.70
2023-01-07T18:56:30.153Z,59.60
2023-01-07T18:58:59.446Z,59.50
2023-01-07T19:01:27.821Z,59.50
2023-01-07T19:03:56.921Z,59.60
2023-01-07T19:06:24.974Z,59.60
2023-01-07T19:08:52.642Z,59.40
2023-01-07T19:11:20.567Z,59.30
2023-01-07T19:13:48.913Z,59.20
2023-01-07T19:16:18.115Z,59.20
2023-01-07T19:18:46.230Z,59.20
2023-01-07T19:21:14.421Z,59.10
2023-01-07T19:23:42.540Z,59.20
2023-01-07T19:26:10.726Z,59.20
2023-01-07T19:28:38.900Z,59.20
2023-01-07T19:31:07.563Z,59.10
2023-01-07T19:33:36.985Z,59.20
2023-01-07T19:36:05.757Z,59.00
2023-01-07T19:38:33.737Z,59.00
2023-01-07T19:41:02.096Z,59.00
2023-01-07T19:43:29.947Z,59.00
2023-01-07T19:45:57.712Z,59.00
2023-01-07T19:48:26.031Z,59.00
2023-01-07T19:50:56.321Z,59.00
2023-01-07T19:53:24.702Z,59.00
2023-01-07T19:55:54.087Z,59.10
2023-01-07T19:58:22.625Z,59.00
2023-01-07T20:00:50.655Z,59.10
2023-01-07T20:03:19.000Z,58.90
2023-01-07T20:05:46.931Z,59.00
2023-01-07T20:08:16.204Z,59.00
2023-01-07T20:10:43.970Z,59.00
2023-01-07T20:13:11.656Z,59.00
2023-01-07T20:15:39.304Z,59.00
2023-01-07T20:18:07.191Z,58.90
2023-01-07T20:20:34.867Z,59.00
2023-01-07T20:23:02.546Z,58.80
2023-01-07T20:25:31.968Z,58.90
2023-01-07T20:27:59.818Z,58.90
2023-01-07T20:30:28.240Z,58.90
2023-01-07T20:32:56.353Z,59.00
2023-01-07T20:35:24.996Z,59.00
2023-01-07T20:37:52.858Z,59.00
2023-01-07T20:40:21.103Z,59.00
2023-01-07T20:42:50.437Z,58.90
2023-01-07T20:45:18.311Z,58.90
2023-01-07T20:47:46.746Z,59.00
2023-01-07T20:50:15.310Z,59.00
2023-01-07T20:52:43.712Z,59.00
2023-01-07T20:55:11.757Z,59.00
2023-01-07T20:57:40.456Z,59.10
2023-01-07T21:00:11.561Z,59.20
2023-01-07T21:02:39.990Z,59.20
2023-01-07T21:05:08.924Z,59.30
2023-01-07T21:07:37.120Z,59.20
2023-01-07T21:10:05.456Z,59.30
2023-01-07T21:12:33.163Z,59.20
2023-01-07T21:15:00.866Z,59.30
2023-01-07T21:17:29.887Z,59.30
2023-01-07T21:19:58.166Z,59.20
2023-01-07T21:22:25.862Z,59.20
2023-01-07T21:24:54.268Z,59.30
2023-01-07T21:27:22.031Z,59.30
2023-01-07T21:29:51.449Z,59.20
2023-01-07T21:32:19.148Z,59.40
2023-01-07T21:34:48.815Z,59.30
2023-01-07T21:37:16.518Z,59.20
2023-01-07T21:39:44.600Z,59.30
2023-01-07T21:42:12.563Z,59.40
2023-01-07T21:44:40.434Z,59.30
2023-01-07T21:47:08.817Z,59.30
2023-01-07T21:49:36.622Z,59.30
2023-01-07T21:52:06.338Z,59.30
2023-01-07T21:54:34.387Z,59.20
2023-01-07T21:57:02.088Z,59.20
2023-01-07T21:59:29.767Z,59.10
2023-01-07T22:01:57.722Z,59.20
2023-01-07T22:04:26.897Z,59.10
2023-01-07T22:06:55.177Z,59.20
2023-01-07T22:09:25.289Z,59.10
2023-01-07T22:11:53.266Z,59.00
2023-01-07T22:14:21.177Z,59.10
2023-01-07T22:16:49.422Z,59.00
2023-01-07T22:19:17.379Z,59.00
2023-01-07T22:21:45.180Z,59.00
2023-01-07T22:24:14.756Z,59.00
2023-01-07T22:26:43.979Z,59.00
2023-01-07T22:29:12.219Z,58.90
2023-01-07T22:31:40.053Z,58.90
2023-01-07T22:34:08.169Z,58.80
2023-01-07T22:36:38.804Z,58.80
2023-01-07T22:39:10.144Z,58.80
2023-01-07T22:41:37.827Z,58.80
2023-01-07T22:44:08.957Z,58.70
2023-01-07T22:46:36.645Z,58.80
2023-01-07T22:49:04.633Z,58.70
2023-01-07T22:51:37.915Z,58.80
2023-01-07T22:54:06.459Z,58.70
2023-01-07T22:56:34.910Z,58.70
2023-01-07T22:59:02.633Z,58.70
2023-01-07T23:01:32.478Z,58.70
2023-01-07T23:04:00.295Z,58.70
2023-01-07T23:06:28.430Z,58.80
2023-01-07T23:08:56.176Z,58.70
2023-01-07T23:11:41.855Z,58.70
2023-01-07T23:14:09.541Z,58.70
2023-01-07T23:16:39.072Z,58.70
2023-01-07T23:19:06.848Z,58.60
2023-01-07T23:21:36.768Z,58.60
2023-01-07T23:24:04.969Z,58.50
2023-01-07T23:26:32.744Z,58.70
2023-01-07T23:29:00.610Z,58.60
2023-01-07T23:31:28.492Z,58.60
2023-01-07T23:33:58.297Z,58.60
2023-01-07T23:36:26.264Z,58.50
2023-01-07T23:38:54.521Z,58.40
2023-01-07T23:41:22.395Z,58.40
2023-01-07T23:43:50.935Z,58.40
2023-01-07T23:46:18.810Z,58.40
2023-01-07T23:48:47.036Z,58.30
2023-01-07T23:51:16.910Z,58.20
2023-01-07T23:53:45.081Z,58.10
2023-01-07T23:56:13.198Z,58.20
2023-01-07T23:58:41.300Z,58.20
